Time;durP1;ratioP1;P1;durP2;ratioP2;P2;SDS_P1;SDS_P2;PMS_P1;PMS_P2;Temp;Humidity;BMP_temperature;BMP_pressure;BME280_temperature;BME280_humidity;BME280_pressure;Samples;Min_cycle;Max_cycle;Signal;HPM_P1;HPM_P2
2022/09/11 00:02:22;;;;;;;1.90;0.57;;;13.00;99.90;;;;;;20754373;28;20045;-50
2022/09/11 00:12:25;;;;;;;2.83;0.90;;;13.00;99.90;;;;;;20750892;28;20038;-50
2022/09/11 00:22:29;;;;;;;1.33;0.80;;;13.00;99.90;;;;;;20701245;28;20042;-48
2022/09/11 00:32:32;;;;;;;1.00;0.77;;;13.10;99.90;;;;;;20748433;28;20045;-57
2022/09/11 00:42:34;;;;;;;1.13;0.30;;;13.10;99.90;;;;;;20752518;28;20033;-51
2022/09/11 00:52:55;;;;;;;0.85;0.28;;;13.00;99.90;;;;;;20753298;28;20042;-46
2022/09/11 01:02:59;;;;;;;0.93;0.40;;;12.90;99.90;;;;;;20740313;28;20041;-57
2022/09/11 01:13:09;;;;;;;1.10;0.30;;;12.80;99.90;;;;;;20745873;28;20038;-51
2022/09/11 01:23:36;;;;;;;1.13;0.30;;;12.60;99.90;;;;;;20743737;28;20042;-57
2022/09/11 01:33:46;;;;;;;0.60;0.28;;;12.50;99.90;;;;;;20715414;28;20042;-58
2022/09/11 01:44:22;;;;;;;2.47;0.43;;;12.40;99.90;;;;;;20745101;28;20064;-51
2022/09/11 01:54:31;;;;;;;9.70;1.50;;;12.10;99.90;;;;;;20755404;28;20124;-49
2022/09/11 02:04:45;;;;;;;6.30;1.85;;;11.20;99.90;;;;;;20733366;28;20062;-51
2022/09/11 02:14:50;;;;;;;1.48;0.60;;;10.10;99.90;;;;;;20724156;28;20084;-46
2022/09/11 02:24:54;;;;;;;1.13;0.52;;;9.90;99.90;;;;;;20729209;28;20034;-51
2022/09/11 02:35:02;;;;;;;0.40;0.30;;;9.80;99.90;;;;;;20707040;28;20141;-59
2022/09/11 02:45:43;;;;;;;0.65;0.30;;;9.60;99.90;;;;;;20732224;28;20096;-50
2022/09/11 02:56:11;;;;;;;0.20;0.20;;;9.30;99.90;;;;;;20624983;28;20503;-59
2022/09/11 03:06:26;;;;;;;1.63;0.28;;;9.10;99.90;;;;;;20659876;28;20042;-47
2022/09/11 03:16:29;;;;;;;0.55;0.20;;;9.10;99.90;;;;;;20674206;28;20038;-59
2022/09/11 03:26:32;;;;;;;1.60;0.30;;;8.80;99.90;;;;;;20638211;28;20407;-46
2022/09/11 03:36:36;;;;;;;0.40;0.10;;;8.70;99.90;;;;;;20635129;28;20038;-50
2022/09/11 03:46:39;;;;;;;0.47;0.30;;;8.70;99.90;;;;;;20666038;28;20099;-46
2022/09/11 03:56:45;;;;;;;0.95;0.15;;;8.70;99.90;;;;;;20722428;28;20049;-47
2022/09/11 04:06:47;;;;;;;0.30;0.10;;;8.60;99.90;;;;;;20719154;28;20065;-49
2022/09/11 04:16:52;;;;;;;0.22;0.10;;;8.50;99.90;;;;;;20738634;28;20336;-47
2022/09/11 04:26:55;;;;;;;0.20;0.10;;;8.50;99.90;;;;;;20721518;28;20037;-58
2022/09/11 04:37:02;;;;;;;1.75;0.20;;;8.60;99.90;;;;;;20734371;28;20065;-58
2022/09/11 04:47:05;;;;;;;0.40;0.10;;;8.50;99.90;;;;;;20752423;28;20120;-50
2022/09/11 04:57:09;;;;;;;0.10;0.05;;;8.40;99.90;;;;;;20747116;28;20038;-46
2022/09/11 05:07:13;;;;;;;0.22;0.10;;;8.40;99.90;;;;;;20737985;28;20108;-45
2022/09/11 05:17:19;;;;;;;0.38;0.00;;;8.50;99.90;;;;;;20730227;28;20390;-46
2022/09/11 05:27:23;;;;;;;1.17;0.10;;;8.60;99.90;;;;;;20744040;28;20090;-50
2022/09/11 05:37:25;;;;;;;0.10;0.00;;;8.60;99.90;;;;;;20743905;28;20376;-49
2022/09/11 05:47:29;;;;;;;1.23;0.10;;;8.70;99.90;;;;;;20734221;28;20033;-48
2022/09/11 05:57:35;;;;;;;0.20;0.00;;;8.90;99.90;;;;;;20724945;28;20100;-48
2022/09/11 06:07:38;;;;;;;0.10;0.00;;;9.00;99.90;;;;;;20742070;28;20100;-46
2022/09/11 06:17:40;;;;;;;0.10;0.00;;;9.30;99.90;;;;;;20742966;28;20033;-45
2022/09/11 06:27:42;;;;;;;0.80;0.00;;;9.50;99.90;;;;;;20744448;28;20398;-49
2022/09/11 06:37:46;;;;;;;0.00;0.00;;;9.80;99.90;;;;;;20727116;28;20038;-49
2022/09/11 06:47:49;;;;;;;1.02;0.10;;;10.20;99.90;;;;;;20726587;28;20117;-49
2022/09/11 06:57:53;;;;;;;0.35;0.00;;;11.10;99.90;;;;;;20753987;28;20137;-47
2022/09/11 07:08:00;;;;;;;0.30;0.00;;;12.30;99.90;;;;;;20720939;28;20092;-51
2022/09/11 07:18:07;;;;;;;0.10;0.00;;;13.20;99.90;;;;;;20732599;28;20576;-49
2022/09/11 07:28:11;;;;;;;0.00;0.00;;;14.00;99.90;;;;;;20735818;28;20475;-49
2022/09/11 07:38:15;;;;;;;0.00;0.00;;;14.70;99.90;;;;;;20723976;28;20038;-47
2022/09/11 07:48:20;;;;;;;0.38;0.00;;;15.50;99.90;;;;;;20717705;28;20092;-46
2022/09/11 07:58:23;;;;;;;0.00;0.00;;;16.20;99.90;;;;;;20734822;28;20494;-58
2022/09/11 08:08:28;;;;;;;0.00;0.00;;;16.60;99.90;;;;;;20735924;28;20037;-58
2022/09/11 08:18:34;;;;;;;0.35;0.00;;;17.10;99.90;;;;;;20744716;28;20438;-58
2022/09/11 08:28:37;;;;;;;0.88;0.00;;;17.20;99.70;;;;;;20749610;28;20544;-58
2022/09/11 08:38:42;;;;;;;1.27;0.00;;;17.20;96.70;;;;;;20739717;28;20038;-58
2022/09/11 08:49:23;;;;;;;0.10;0.00;;;17.40;99.30;;;;;;20721809;28;20588;-48
2022/09/11 08:59:33;;;;;;;0.65;0.10;;;18.40;95.80;;;;;;20735862;28;20122;-48
2022/09/11 09:09:53;;;;;;;0.67;0.10;;;19.30;99.90;;;;;;20749715;28;20435;-49
2022/09/11 09:20:04;;;;;;;0.73;0.20;;;18.90;99.90;;;;;;20712595;28;20468;-51
2022/09/11 09:30:33;;;;;;;0.30;0.10;;;19.80;99.90;;;;;;20761494;28;20034;-59
2022/09/11 09:40:37;;;;;;;0.80;0.20;;;20.40;99.90;;;;;;20727404;28;20577;-48
2022/09/11 09:50:45;;;;;;;0.82;0.10;;;20.40;99.90;;;;;;20747292;28;20116;-59
2022/09/11 10:00:49;;;;;;;0.00;0.00;;;21.00;99.90;;;;;;20738786;28;20046;-59
2022/09/11 10:11:04;;;;;;;0.38;0.10;;;21.40;99.90;;;;;;20744431;28;20104;-48
2022/09/11 10:21:21;;;;;;;0.57;0.13;;;21.20;99.90;;;;;;20724148;28;20030;-52
2022/09/11 10:31:25;;;;;;;0.10;0.10;;;21.20;99.00;;;;;;20739853;28;20088;-50
2022/09/11 10:41:33;;;;;;;0.25;0.10;;;20.90;99.90;;;;;;20724497;28;20041;-59
2022/09/11 10:51:38;;;;;;;0.10;0.10;;;21.50;99.30;;;;;;20733231;28;20053;-49
2022/09/11 11:01:42;;;;;;;0.10;0.10;;;22.50;99.80;;;;;;20723840;28;20113;-49
2022/09/11 11:12:16;;;;;;;1.13;0.03;;;22.80;95.90;;;;;;20737220;28;20088;-52
2022/09/11 11:22:37;;;;;;;0.52;0.10;;;22.80;94.50;;;;;;20722002;28;20096;-60
2022/09/11 11:33:03;;;;;;;0.90;0.20;;;22.80;98.00;;;;;;20723606;28;20034;-60
2022/09/11 11:43:18;;;;;;;0.10;0.10;;;22.80;98.30;;;;;;20732726;28;20073;-52
2022/09/11 11:53:23;;;;;;;1.45;0.10;;;22.80;99.50;;;;;;20757687;28;20553;-61
2022/09/11 12:03:43;;;;;;;0.43;0.20;;;22.90;97.90;;;;;;20750839;28;20038;-48
2022/09/11 12:13:48;;;;;;;0.32;0.13;;;22.80;98.20;;;;;;20813480;28;20047;-52
2022/09/11 12:24:02;;;;;;;1.20;0.30;;;23.10;99.90;;;;;;20733208;28;20141;-48
2022/09/11 12:34:18;;;;;;;0.20;0.20;;;23.10;99.60;;;;;;20773245;28;20034;-61
2022/09/11 12:44:51;;;;;;;0.55;0.20;;;23.20;99.30;;;;;;20735937;28;20029;-50
2022/09/11 12:54:54;;;;;;;0.60;0.45;;;23.60;99.50;;;;;;20744249;28;20046;-62
2022/09/11 13:04:57;;;;;;;1.95;0.45;;;24.50;99.90;;;;;;20738872;28;20711;-49
2022/09/11 13:15:00;;;;;;;0.60;0.40;;;23.30;97.80;;;;;;20724679;28;20033;-49
2022/09/11 13:25:14;;;;;;;0.65;0.32;;;21.00;99.90;;;;;;20734367;28;20037;-48
2022/09/11 13:35:25;;;;;;;0.30;0.20;;;19.60;99.90;;;;;;20728112;28;20096;-49
2022/09/11 13:45:30;;;;;;;0.55;0.50;;;19.80;99.90;;;;;;20749168;28;20065;-61
2022/09/11 13:55:34;;;;;;;1.85;0.45;;;20.20;99.90;;;;;;20775050;28;20104;-61
2022/09/11 14:05:48;;;;;;;1.00;0.70;;;20.50;99.90;;;;;;20768106;28;20111;-51
2022/09/11 14:16:06;;;;;;;2.00;1.00;;;19.60;99.90;;;;;;20757766;28;20034;-61
2022/09/11 14:26:14;;;;;;;2.42;0.80;;;20.40;99.90;;;;;;20740793;28;20475;-60
2022/09/11 14:36:20;;;;;;;0.30;0.30;;;19.80;99.90;;;;;;20757726;28;20399;-60
2022/09/11 14:46:23;;;;;;;2.30;0.90;;;19.40;99.90;;;;;;20723905;28;20045;-60
2022/09/11 14:56:26;;;;;;;0.52;0.30;;;19.20;99.90;;;;;;20754047;28;20037;-51
2022/09/11 15:06:28;;;;;;;1.75;0.45;;;18.90;99.90;;;;;;20704502;28;20537;-61
2022/09/11 15:16:32;;;;;;;1.33;0.73;;;18.40;99.90;;;;;;20771781;28;20445;-61
2022/09/11 15:26:36;;;;;;;0.40;0.30;;;18.10;99.90;;;;;;20736965;28;20372;-51
2022/09/11 15:36:38;;;;;;;1.45;0.57;;;17.80;99.90;;;;;;20737927;28;20041;-52
2022/09/11 15:46:42;;;;;;;1.30;0.65;;;17.30;99.90;;;;;;20719893;28;20041;-50
2022/09/11 15:56:45;;;;;;;1.27;0.70;;;17.00;99.90;;;;;;20729682;28;20038;-48
2022/09/11 16:06:48;;;;;;;1.17;0.80;;;16.10;99.90;;;;;;20730803;28;20038;-48
2022/09/11 16:16:53;;;;;;;2.08;0.80;;;15.20;99.90;;;;;;20732683;28;20435;-59
2022/09/11 16:26:56;;;;;;;1.75;0.70;;;14.40;99.90;;;;;;20735088;28;20041;-52
2022/09/11 16:36:59;;;;;;;0.73;0.50;;;13.90;99.90;;;;;;20731197;28;20037;-53
2022/09/11 16:47:01;;;;;;;0.73;0.40;;;13.50;99.90;;;;;;20750119;28;20125;-50
2022/09/11 16:57:05;;;;;;;0.90;0.20;;;13.10;99.90;;;;;;20748162;28;20033;-49
2022/09/11 17:07:07;;;;;;;0.60;0.22;;;12.80;99.90;;;;;;20746756;28;20092;-51
2022/09/11 17:17:12;;;;;;;1.48;0.30;;;12.40;99.90;;;;;;20741551;28;20034;-58
2022/09/11 17:27:16;;;;;;;0.20;0.20;;;12.00;99.90;;;;;;20736742;28;20137;-53
2022/09/11 17:37:19;;;;;;;1.08;0.30;;;11.80;99.90;;;;;;20711999;28;20073;-59
2022/09/11 17:47:21;;;;;;;0.73;0.30;;;11.80;99.90;;;;;;20742230;28;20045;-59
2022/09/11 17:57:24;;;;;;;0.43;0.30;;;11.80;99.90;;;;;;20712515;28;20061;-52
2022/09/11 18:07:27;;;;;;;0.17;0.08;;;11.60;99.90;;;;;;20725867;28;20120;-52
2022/09/11 18:17:30;;;;;;;0.57;0.10;;;11.70;99.90;;;;;;20744287;28;20375;-51
2022/09/11 18:27:33;;;;;;;1.05;0.10;;;11.90;99.90;;;;;;20740875;28;20038;-58
2022/09/11 18:37:36;;;;;;;2.08;0.00;;;11.70;99.90;;;;;;20751552;28;20108;-50
2022/09/11 18:47:39;;;;;;;0.10;0.00;;;11.60;99.90;;;;;;20757719;28;20100;-52
2022/09/11 18:57:42;;;;;;;0.10;0.00;;;11.70;99.90;;;;;;20765596;28;20086;-58
2022/09/11 19:07:47;;;;;;;0.00;0.00;;;11.80;99.90;;;;;;20788587;28;20041;-58
2022/09/11 19:17:54;;;;;;;0.00;0.00;;;11.70;99.90;;;;;;20721338;28;20108;-58
2022/09/11 19:27:56;;;;;;;0.45;0.10;;;11.80;99.90;;;;;;20740290;28;20552;-58
2022/09/11 19:37:59;;;;;;;0.22;0.03;;;12.10;99.90;;;;;;20727765;28;20042;-48
2022/09/11 19:48:02;;;;;;;0.22;0.00;;;11.80;99.90;;;;;;20721920;28;20553;-58
2022/09/11 19:58:05;;;;;;;0.00;0.00;;;11.80;99.90;;;;;;20719424;28;20450;-48
2022/09/11 20:08:09;;;;;;;0.00;0.00;;;11.30;99.90;;;;;;20729270;28;20116;-49
2022/09/11 20:18:13;;;;;;;0.22;0.00;;;11.00;99.90;;;;;;20718130;28;20067;-59
2022/09/11 20:28:16;;;;;;;0.00;0.00;;;10.70;99.90;;;;;;20758321;28;20041;-51
2022/09/11 20:38:19;;;;;;;0.08;0.00;;;10.30;99.90;;;;;;20741318;28;20486;-58
2022/09/11 20:48:22;;;;;;;0.05;0.00;;;10.20;99.90;;;;;;20760627;28;20054;-58
2022/09/11 20:58:24;;;;;;;0.20;0.00;;;10.10;99.90;;;;;;20744131;28;20395;-51
2022/09/11 21:08:27;;;;;;;0.73;0.00;;;10.00;99.90;;;;;;20753492;28;20038;-58
2022/09/11 21:18:30;;;;;;;0.98;0.00;;;10.00;99.90;;;;;;20712648;28;20050;-51
2022/09/11 21:28:33;;;;;;;0.30;0.20;;;10.20;99.90;;;;;;20728235;28;20115;-51
2022/09/11 21:38:36;;;;;;;0.65;0.20;;;10.40;99.90;;;;;;20747519;28;20548;-51
2022/09/11 21:48:40;;;;;;;0.10;0.10;;;10.30;99.90;;;;;;20728926;28;20117;-58
2022/09/11 21:58:42;;;;;;;0.32;0.17;;;10.30;99.90;;;;;;20731718;28;20037;-50
2022/09/11 22:08:47;;;;;;;0.10;0.10;;;10.20;99.90;;;;;;20714513;28;20073;-49
2022/09/11 22:18:52;;;;;;;0.22;0.10;;;10.20;99.90;;;;;;20752613;28;20041;-49
2022/09/11 22:28:58;;;;;;;1.65;0.10;;;10.50;99.90;;;;;;20744356;28;20615;-49
2022/09/11 22:39:03;;;;;;;0.38;0.10;;;10.40;99.90;;;;;;20752790;28;20111;-48
2022/09/11 22:49:05;;;;;;;0.10;0.00;;;10.10;99.90;;;;;;20742835;28;20058;-51
2022/09/11 22:59:08;;;;;;;0.10;0.10;;;9.80;99.90;;;;;;20740357;28;20536;-57
2022/09/11 23:09:15;;;;;;;0.85;0.10;;;9.70;99.90;;;;;;20760209;28;20059;-50
2022/09/11 23:19:18;;;;;;;0.88;0.28;;;9.60;99.90;;;;;;20755245;28;20037;-52
2022/09/11 23:29:21;;;;;;;0.63;0.13;;;9.90;99.90;;;;;;20736364;28;20442;-58
2022/09/11 23:39:23;;;;;;;0.82;0.20;;;9.70;99.90;;;;;;20746642;28;20042;-51
2022/09/11 23:49:25;;;;;;;0.30;0.20;;;9.50;99.90;;;;;;20755186;28;20104;-52
2022/09/11 23:59:28;;;;;;;0.43;0.20;;;9.40;99.90;;;;;;20758283;28;20038;-52
